createdAt,value
2022-08-16T00:02:31.293Z,21.7
2022-08-16T00:04:35.144Z,21.7
2022-08-16T00:06:39.362Z,21.7
2022-08-16T00:08:45.863Z,21.7
2022-08-16T00:10:46.897Z,21.6
2022-08-16T00:12:51.059Z,21.6
2022-08-16T00:14:56.545Z,21.6
2022-08-16T00:17:15.850Z,21.6
2022-08-16T00:21:09.379Z,21.6
2022-08-16T00:22:15.284Z,21.6
2022-08-16T00:24:31.218Z,21.6
2022-08-16T00:26:35.540Z,21.5
2022-08-16T00:28:24.484Z,21.5
2022-08-16T00:30:31.257Z,21.3
2022-08-16T00:36:47.081Z,21.2
2022-08-16T00:38:46.972Z,21.2
2022-08-16T00:40:53.698Z,21.1
2022-08-16T00:42:55.020Z,21.1
2022-08-16T00:47:06.495Z,21.1
2022-08-16T00:49:19.589Z,21.1
2022-08-16T00:51:15.968Z,20.9
2022-08-16T00:53:17.985Z,20.9
2022-08-16T00:55:22.216Z,20.8
2022-08-16T00:57:25.859Z,20.8
2022-08-16T00:59:32.876Z,20.7
2022-08-16T01:01:36.555Z,20.7
2022-08-16T01:03:41.639Z,20.7
2022-08-16T01:07:52.100Z,20.6
2022-08-16T01:09:52.295Z,20.5
2022-08-16T01:14:03.031Z,20.5
2022-08-16T01:16:10.124Z,20.5
2022-08-16T01:18:40.536Z,20.4
2022-08-16T01:19:15.301Z,20.5
2022-08-16T01:21:22.536Z,20.4
2022-08-16T01:23:22.138Z,20.3
2022-08-16T01:27:34.423Z,20.3
2022-08-16T01:31:42.495Z,20.3
2022-08-16T01:33:44.838Z,20.4
2022-08-16T01:35:52.497Z,20.3
2022-08-16T01:37:53.111Z,20.3
2022-08-16T01:39:56.449Z,20.3
2022-08-16T01:42:03.199Z,20.1
2022-08-16T01:44:07.132Z,20.1
2022-08-16T01:46:37.471Z,20.1
2022-08-16T01:54:30.953Z,19.9
2022-08-16T02:00:42.954Z,19.9
2022-08-16T02:02:52.176Z,19.9
2022-08-16T02:04:51.215Z,19.9
2022-08-16T02:06:54.783Z,19.8
2022-08-16T02:08:58.705Z,19.8
2022-08-16T02:11:05.510Z,19.8
2022-08-16T02:13:09.441Z,19.8
2022-08-16T02:15:13.361Z,19.7
2022-08-16T02:17:31.376Z,19.7
2022-08-16T02:19:59.164Z,19.7
2022-08-16T02:21:39.259Z,19.7
2022-08-16T02:25:52.747Z,19.5
2022-08-16T02:32:03.928Z,19.4
2022-08-16T02:36:14.105Z,19.4
2022-08-16T02:40:20.393Z,19.4
2022-08-16T02:42:24.333Z,19.4
2022-08-16T02:46:33.823Z,19.3
2022-08-16T02:50:54.633Z,19.3
2022-08-16T02:52:47.028Z,19.2
2022-08-16T02:54:55.231Z,19.2
2022-08-16T02:56:54.775Z,19.1
2022-08-16T02:58:58.719Z,19.1
2022-08-16T03:01:02.650Z,19
2022-08-16T03:03:10.545Z,19
2022-08-16T03:07:17.307Z,19.1
2022-08-16T03:09:21.260Z,19.1
2022-08-16T03:11:25.214Z,19
2022-08-16T03:12:30.121Z,19.1
2022-08-16T03:14:32.548Z,19.1
2022-08-16T03:16:39.178Z,19.1
2022-08-16T03:18:40.681Z,19
2022-08-16T03:20:55.491Z,19.1
2022-08-16T03:22:51.180Z,19.2
2022-08-16T03:24:55.129Z,19.2
2022-08-16T03:29:03.021Z,19.4
2022-08-16T03:31:06.955Z,19.4
2022-08-16T03:33:10.916Z,19.4
2022-08-16T03:35:18.109Z,19.4
2022-08-16T03:37:21.614Z,19.4
2022-08-16T03:39:25.649Z,19.4
2022-08-16T03:41:50.350Z,19.4
2022-08-16T03:43:51.832Z,19.4
2022-08-16T03:45:37.397Z,19.3
2022-08-16T03:47:41.357Z,19.2
2022-08-16T03:51:52.219Z,19.1
2022-08-16T03:53:57.501Z,19
2022-08-16T03:55:59.949Z,19
2022-08-16T03:58:03.908Z,19
2022-08-16T04:00:07.855Z,19
2022-08-16T04:02:22.416Z,19
2022-08-16T04:04:32.577Z,19
2022-08-16T04:06:22.545Z,19
2022-08-16T04:08:27.044Z,19
2022-08-16T04:09:29.894Z,18.9
2022-08-16T04:19:54.943Z,18.8
2022-08-16T04:24:00.375Z,18.8
2022-08-16T04:26:04.325Z,18.8
2022-08-16T04:28:51.967Z,18.8
2022-08-16T04:30:12.204Z,18.8
2022-08-16T04:32:19.863Z,18.8
2022-08-16T04:34:24.888Z,18.8
2022-08-16T04:36:26.881Z,18.8
2022-08-16T04:38:30.801Z,18.8
2022-08-16T04:40:35.014Z,18.8
2022-08-16T04:42:38.707Z,18.9
2022-08-16T04:44:53.350Z,18.9
2022-08-16T04:53:01.317Z,19.1
2022-08-16T04:55:05.265Z,19.1
2022-08-16T04:59:13.159Z,19.2
2022-08-16T05:01:19.974Z,19.3
2022-08-16T05:03:23.948Z,19.4
2022-08-16T05:06:44.791Z,20.9
2022-08-16T05:08:35.171Z,21.2
2022-08-16T05:10:39.113Z,21.3
2022-08-16T05:12:44.868Z,20.8
2022-08-16T05:15:01.981Z,21.3
2022-08-16T05:16:53.758Z,21.5
2022-08-16T05:18:58.376Z,21.6
2022-08-16T05:21:09.772Z,21
2022-08-16T05:23:05.593Z,20.6
2022-08-16T05:25:09.537Z,20.5
2022-08-16T05:27:13.470Z,20.5
2022-08-16T05:29:20.650Z,21.7
2022-08-16T05:31:24.162Z,22.4
2022-08-16T05:33:28.098Z,23.1
2022-08-16T05:35:32.033Z,23.3
2022-08-16T05:37:39.928Z,23.9
2022-08-16T05:39:40.914Z,24.2
2022-08-16T05:41:45.119Z,24.3
2022-08-16T05:43:50.531Z,24.3
2022-08-16T05:45:54.645Z,23.7
2022-08-16T05:47:59.956Z,22.9
2022-08-16T05:50:02.337Z,22.6
2022-08-16T05:52:11.668Z,22.4
2022-08-16T05:54:11.485Z,22.7
2022-08-16T05:56:19.495Z,22.4
2022-08-16T05:58:32.745Z,21.9
2022-08-16T06:00:24.591Z,21.9
2022-08-16T06:02:29.003Z,21.9
2022-08-16T06:04:52.492Z,21.9
2022-08-16T06:06:57.249Z,21.8
2022-08-16T06:09:00.285Z,21.7
2022-08-16T06:11:10.254Z,21.7
2022-08-16T06:13:10.924Z,21.7
2022-08-16T06:15:15.062Z,21.7
2022-08-16T06:17:18.744Z,21.8
2022-08-16T06:23:32.152Z,22
2022-08-16T06:25:39.187Z,22.1
2022-08-16T06:27:41.145Z,22.1
2022-08-16T06:29:49.840Z,22.1
2022-08-16T06:31:50.540Z,22.1
2022-08-16T06:38:00.719Z,22.5
2022-08-16T06:44:20.952Z,22.4
2022-08-16T06:48:32.879Z,22.8
2022-08-16T06:52:57.810Z,22.8
2022-08-16T06:54:37.722Z,22.7
2022-08-16T06:56:41.581Z,22.7
2022-08-16T06:58:45.488Z,22.9
2022-08-16T07:03:57.477Z,23.6
2022-08-16T07:06:00.566Z,23.7
2022-08-16T07:08:07.332Z,23.3
2022-08-16T07:10:11.234Z,23.2
2022-08-16T07:12:15.413Z,23.2
2022-08-16T07:14:26.348Z,24.1
2022-08-16T07:16:22.930Z,25.4
2022-08-16T07:20:47.043Z,27
2022-08-16T07:22:39.742Z,27
2022-08-16T07:24:45.796Z,27.1
2022-08-16T07:26:48.566Z,27.5
2022-08-16T07:28:49.009Z,27.9
2022-08-16T07:30:52.835Z,28.2
2022-08-16T07:35:00.503Z,27.6
2022-08-16T07:37:07.177Z,28.3
2022-08-16T07:39:10.986Z,28.3
2022-08-16T07:41:14.881Z,27.8
2022-08-16T07:43:18.598Z,27.9
2022-08-16T07:45:22.384Z,27.6
2022-08-16T07:47:31.850Z,27.9
2022-08-16T07:49:32.532Z,28
2022-08-16T07:56:48.941Z,28.3
2022-08-16T07:58:55.409Z,28.6
2022-08-16T08:00:56.495Z,28.9
2022-08-16T08:03:00.181Z,28.5
2022-08-16T08:05:06.814Z,28.3
2022-08-16T08:07:10.519Z,28.2
2022-08-16T08:09:14.257Z,28.2
2022-08-16T08:11:18.317Z,27.8
2022-08-16T08:13:41.816Z,27.6
2022-08-16T08:17:29.100Z,27.9
2022-08-16T08:19:35.690Z,28
2022-08-16T08:23:43.226Z,28.4
2022-08-16T08:25:53.854Z,28.3
2022-08-16T08:27:50.458Z,28.1
2022-08-16T08:30:43.918Z,28
2022-08-16T08:31:57.802Z,28
2022-08-16T08:34:04.893Z,28.3
2022-08-16T08:40:15.449Z,28.3
2022-08-16T08:42:25.115Z,28.7
2022-08-16T08:44:29.272Z,28.9
2022-08-16T08:46:26.271Z,29
2022-08-16T08:48:35.741Z,29.5
2022-08-16T08:50:36.450Z,29.8
2022-08-16T08:52:40.765Z,28.9
2022-08-16T08:53:43.332Z,28.9
2022-08-16T08:55:46.954Z,29.2
2022-08-16T08:57:50.557Z,29.2
2022-08-16T08:59:54.183Z,28.7
2022-08-16T09:02:00.678Z,29.1
2022-08-16T09:04:04.563Z,29.3
2022-08-16T09:06:07.901Z,29.1
2022-08-16T09:08:11.509Z,29.3
2022-08-16T09:10:20.863Z,28.7
2022-08-16T09:12:35.379Z,28.6
2022-08-16T09:14:23.961Z,28.6
2022-08-16T09:17:00.783Z,29.3
2022-08-16T09:18:35.403Z,29.4
2022-08-16T09:30:56.966Z,29.9
2022-08-16T09:33:00.549Z,30
2022-08-16T09:39:16.232Z,30.8
2022-08-16T09:41:15.131Z,30.9
2022-08-16T09:43:44.751Z,30.8
2022-08-16T09:47:28.616Z,30.2
2022-08-16T09:49:36.904Z,31
2022-08-16T09:51:57.272Z,31.2
2022-08-16T09:53:59.452Z,31.7
2022-08-16T09:56:03.030Z,32.2
2022-08-16T10:06:23.794Z,32.1
2022-08-16T10:08:27.684Z,31.6
2022-08-16T10:10:31.347Z,31.4
2022-08-16T10:14:40.949Z,31.4
2022-08-16T10:19:02.147Z,31.5
2022-08-16T10:27:25.602Z,31.4
2022-08-16T10:29:08.759Z,31.1
2022-08-16T10:33:15.905Z,32.1
2022-08-16T10:35:19.463Z,32.1
2022-08-16T10:37:35.851Z,31.6
2022-08-16T10:39:26.687Z,31.2
2022-08-16T10:41:33.080Z,31
2022-08-16T10:43:36.669Z,30.9
2022-08-16T10:45:40.247Z,31.1
2022-08-16T10:46:43.507Z,30.7
2022-08-16T10:48:47.277Z,30.5
2022-08-16T10:50:50.654Z,30.4
2022-08-16T10:52:58.668Z,31
2022-08-16T10:55:40.986Z,30.7
2022-08-16T10:57:04.624Z,30.8
2022-08-16T10:59:43.981Z,31
2022-08-16T11:01:43.716Z,31.4
2022-08-16T11:03:42.210Z,32
2022-08-16T11:05:18.732Z,31.7
2022-08-16T11:07:53.831Z,31.5
2022-08-16T11:09:29.229Z,31.4
2022-08-16T11:11:32.795Z,31.3
2022-08-16T11:13:59.761Z,31.5
2022-08-16T11:15:40.031Z,31.4
2022-08-16T11:17:45.064Z,31.4
2022-08-16T11:20:41.276Z,31.5
2022-08-16T11:23:58.692Z,32.1
2022-08-16T11:26:16.552Z,32.3
2022-08-16T11:28:04.475Z,32.9
2022-08-16T11:30:09.021Z,32.7
2022-08-16T11:32:11.647Z,33.5
2022-08-16T11:34:15.214Z,33.6
2022-08-16T11:36:27.926Z,33.3
2022-08-16T11:40:32.642Z,33.1
2022-08-16T11:42:37.068Z,32.6
2022-08-16T11:43:35.644Z,32.7
2022-08-16T11:45:39.198Z,32.8
2022-08-16T11:47:42.757Z,33.1
2022-08-16T11:49:46.324Z,32.5
2022-08-16T11:51:52.787Z,31.2
2022-08-16T11:53:56.340Z,31.3
2022-08-16T11:55:59.913Z,31.6
2022-08-16T11:58:03.479Z,32.6
2022-08-16T12:00:07.265Z,33.9
2022-08-16T12:02:31.513Z,33.7
2022-08-16T12:04:14.255Z,33.7
2022-08-16T12:06:24.589Z,34.3
2022-08-16T12:08:26.007Z,34.1
2022-08-16T12:12:32.760Z,35.1
2022-08-16T12:14:35.485Z,35.5
2022-08-16T12:16:38.462Z,35.9
2022-08-16T12:18:42.071Z,35.2
2022-08-16T12:20:48.487Z,34.9
2022-08-16T12:22:52.021Z,34.8
2022-08-16T12:24:55.597Z,35.3
2022-08-16T12:26:59.955Z,35.1
2022-08-16T12:29:02.668Z,35.7
2022-08-16T12:39:23.704Z,36.5
2022-08-16T12:40:29.151Z,35.4
2022-08-16T12:42:34.477Z,34.7
2022-08-16T12:44:36.140Z,34.3
2022-08-16T12:46:37.318Z,33.9
2022-08-16T12:50:50.163Z,34.1
2022-08-16T12:52:52.475Z,34.5
2022-08-16T12:56:57.923Z,34.2
2022-08-16T12:59:01.490Z,34.3
2022-08-16T13:01:05.143Z,34.9
2022-08-16T13:03:11.489Z,33.4
2022-08-16T13:05:15.054Z,33
2022-08-16T13:07:18.591Z,32.2
2022-08-16T13:09:22.173Z,31.4
2022-08-16T13:11:25.743Z,30.9
2022-08-16T13:13:29.387Z,30.7
2022-08-16T13:17:43.281Z,30.4
2022-08-16T13:21:46.622Z,30.5
2022-08-16T13:23:50.255Z,30.7
2022-08-16T13:25:54.822Z,30.5
2022-08-16T13:28:14.635Z,30.7
2022-08-16T13:30:01.183Z,30.5
2022-08-16T13:32:08.325Z,31
2022-08-16T13:34:11.381Z,31
2022-08-16T13:36:32.167Z,31.1
2022-08-16T13:40:36.556Z,31.3
2022-08-16T13:42:42.990Z,32.4
2022-08-16T13:44:56.448Z,32.2
2022-08-16T13:46:51.895Z,32.3
2022-08-16T13:48:55.567Z,32.3
2022-08-16T13:51:03.749Z,31.8
2022-08-16T13:55:06.566Z,31.9
2022-08-16T13:57:10.895Z,31.9
2022-08-16T13:59:20.440Z,32.3
2022-08-16T14:01:20.447Z,32.4
2022-08-16T14:03:24.107Z,31.9
2022-08-16T14:07:31.409Z,31.6
2022-08-16T14:09:35.063Z,31.8
2022-08-16T14:11:38.731Z,31.4
2022-08-16T14:15:48.939Z,31.7
2022-08-16T14:18:15.610Z,31
2022-08-16T14:19:59.662Z,31
2022-08-16T14:26:07.230Z,31.8
2022-08-16T14:30:17.447Z,31.2
2022-08-16T14:33:24.410Z,30.2
2022-08-16T14:37:32.060Z,30.2
2022-08-16T14:39:35.479Z,30.2
2022-08-16T14:41:42.005Z,30
2022-08-16T14:43:45.679Z,29.9
2022-08-16T14:45:50.333Z,30.2
2022-08-16T14:47:53.066Z,30.2
2022-08-16T14:49:56.747Z,29.9
2022-08-16T14:52:00.471Z,29.9
2022-08-16T14:54:04.157Z,29.9
2022-08-16T14:56:15.048Z,29.9
2022-08-16T14:58:19.678Z,29.9
2022-08-16T15:00:18.255Z,29.9
2022-08-16T15:02:34.034Z,30.1
2022-08-16T15:04:32.279Z,30.2
2022-08-16T15:06:29.311Z,30.6
2022-08-16T15:08:36.370Z,30.6
2022-08-16T15:10:42.980Z,30.6
2022-08-16T15:12:43.280Z,30.6
2022-08-16T15:14:46.995Z,30.6
2022-08-16T15:16:50.717Z,30.7
2022-08-16T15:18:54.421Z,30.2
2022-08-16T15:20:58.139Z,29.9
2022-08-16T15:23:01.855Z,30
2022-08-16T15:25:08.450Z,30.3
2022-08-16T15:27:12.174Z,30.3
2022-08-16T15:29:15.872Z,30
2022-08-16T15:34:26.622Z,30.1
2022-08-16T15:36:30.344Z,30
2022-08-16T15:39:02.307Z,29.8
2022-08-16T15:40:57.783Z,29.8
2022-08-16T15:42:47.269Z,30
2022-08-16T15:44:52.045Z,30
2022-08-16T15:46:54.819Z,29.8
2022-08-16T15:48:55.544Z,29.6
2022-08-16T15:50:59.254Z,29.7
2022-08-16T15:53:05.885Z,29.6
2022-08-16T15:55:23.927Z,29.6
2022-08-16T15:57:13.353Z,29.8
2022-08-16T15:59:17.094Z,30.1
2022-08-16T16:01:20.901Z,30.2
2022-08-16T16:03:24.544Z,30.4
2022-08-16T16:05:28.284Z,30.4
2022-08-16T16:07:34.892Z,30.3
2022-08-16T16:09:38.610Z,30.4
2022-08-16T16:13:46.068Z,29.8
2022-08-16T16:19:57.241Z,29.5
2022-08-16T16:22:03.878Z,29.3
2022-08-16T16:27:14.637Z,28.8
2022-08-16T16:29:18.386Z,28.6
2022-08-16T16:31:22.114Z,28.6
2022-08-16T16:33:25.923Z,28.5
2022-08-16T16:35:33.010Z,28.2
2022-08-16T16:37:36.245Z,28.2
2022-08-16T16:39:40.076Z,28.1
2022-08-16T16:41:43.771Z,27.9
2022-08-16T16:43:47.542Z,27.8
2022-08-16T16:45:51.294Z,27.7
2022-08-16T16:47:55.066Z,27.6
2022-08-16T16:50:01.742Z,27.5
2022-08-16T16:58:18.029Z,27.6
2022-08-16T17:00:25.942Z,27.7
2022-08-16T17:08:40.862Z,28
2022-08-16T17:10:46.023Z,28.1
2022-08-16T17:12:47.500Z,28.1
2022-08-16T17:14:50.141Z,28.3
2022-08-16T17:16:53.941Z,28.4
2022-08-16T17:19:16.263Z,28.4
2022-08-16T17:21:04.393Z,28.5
2022-08-16T17:23:08.192Z,28.5
2022-08-16T17:25:36.418Z,29.1
2022-08-16T17:27:35.906Z,29
2022-08-16T17:29:45.894Z,28.8
2022-08-16T17:31:47.004Z,28.8
2022-08-16T17:33:54.375Z,28.9
2022-08-16T17:35:55.403Z,28.6
2022-08-16T17:37:58.004Z,28.2
2022-08-16T17:40:04.128Z,27.9
2022-08-16T17:42:05.329Z,27.7
2022-08-16T17:44:09.139Z,27.6
2022-08-16T17:48:19.597Z,27.3
2022-08-16T17:50:23.420Z,27.2
2022-08-16T17:52:27.202Z,27.1
2022-08-16T17:54:31.145Z,26.8
2022-08-16T17:56:34.831Z,26.7
2022-08-16T17:58:38.622Z,26.7
2022-08-16T18:00:45.326Z,26.6
2022-08-16T18:02:49.134Z,26.5
2022-08-16T18:04:52.967Z,26.4
2022-08-16T18:06:56.785Z,26.4
2022-08-16T18:09:03.523Z,26.2
2022-08-16T18:11:04.428Z,26
2022-08-16T18:13:08.251Z,26
2022-08-16T18:15:14.952Z,25.9
2022-08-16T18:17:18.795Z,25.9
2022-08-16T18:19:22.629Z,25.9
2022-08-16T18:20:25.981Z,25.8
2022-08-16T18:22:30.553Z,25.8
2022-08-16T18:24:33.668Z,25.7
2022-08-16T18:26:37.495Z,25.7
2022-08-16T18:28:44.199Z,25.6
2022-08-16T18:30:51.602Z,25.5
2022-08-16T18:32:51.935Z,25.5
2022-08-16T18:34:55.753Z,25.5
2022-08-16T18:36:59.627Z,25.4
2022-08-16T18:39:03.561Z,25.3
2022-08-16T18:41:07.364Z,25.3
2022-08-16T18:45:17.904Z,25.2
2022-08-16T18:47:21.777Z,25.1
2022-08-16T18:49:25.650Z,25
2022-08-16T18:51:29.508Z,24.9
2022-08-16T18:53:33.376Z,24.9
2022-08-16T18:55:37.267Z,24.8
2022-08-16T18:57:43.983Z,24.8
2022-08-16T19:10:07.250Z,24.4
2022-08-16T19:12:15.709Z,24.4
2022-08-16T19:14:17.869Z,24.3
2022-08-16T19:17:25.112Z,24.2
2022-08-16T19:19:28.999Z,24.2
2022-08-16T19:21:32.888Z,24.2
2022-08-16T19:23:37.088Z,24.2
2022-08-16T19:25:48.623Z,24.1
2022-08-16T19:27:47.536Z,24.1
2022-08-16T19:29:51.281Z,24.1
2022-08-16T19:31:55.164Z,24
2022-08-16T19:33:59.055Z,24
2022-08-16T19:36:02.968Z,24.1
2022-08-16T19:38:06.847Z,24.1
2022-08-16T19:40:25.592Z,24
2022-08-16T19:46:26.723Z,23.8
2022-08-16T19:48:30.601Z,23.8
2022-08-16T19:52:38.359Z,23.7
2022-08-16T19:54:45.103Z,23.8
2022-08-16T19:56:48.989Z,23.7
2022-08-16T19:59:17.491Z,23.7
2022-08-16T20:00:56.750Z,23.7
2022-08-16T20:05:04.549Z,23.6
2022-08-16T20:07:08.433Z,23.6
2022-08-16T20:09:16.015Z,23.5
2022-08-16T20:11:19.057Z,23.5
2022-08-16T20:13:22.941Z,23.4
2022-08-16T20:14:26.708Z,23.4
2022-08-16T20:16:30.204Z,23.4
2022-08-16T20:18:34.101Z,23.3
2022-08-16T20:20:37.975Z,23.3
2022-08-16T20:22:53.599Z,23.3
2022-08-16T20:24:48.603Z,23.3
2022-08-16T20:26:52.500Z,23.3
2022-08-16T20:28:56.386Z,23.2
2022-08-16T20:31:00.282Z,23.1
2022-08-16T20:35:08.063Z,23
2022-08-16T20:39:18.717Z,23
2022-08-16T20:41:22.609Z,22.9
2022-08-16T20:43:26.508Z,22.9
2022-08-16T20:47:34.309Z,22.9
2022-08-16T20:49:38.210Z,22.8
2022-08-16T20:51:46.882Z,22.9
2022-08-16T20:53:48.868Z,22.9
2022-08-16T20:55:52.769Z,22.9
2022-08-16T20:57:56.699Z,22.9
2022-08-16T21:00:00.579Z,22.8
2022-08-16T21:02:04.518Z,22.8
2022-08-16T21:12:50.828Z,22.6
2022-08-16T21:14:54.473Z,22.5
2022-08-16T21:21:09.147Z,22.5
2022-08-16T21:25:16.848Z,22.4
2022-08-16T21:27:20.745Z,22.4
2022-08-16T21:31:28.583Z,22.4
2022-08-16T21:39:47.116Z,22.3
2022-08-16T21:41:51.015Z,22.2
2022-08-16T21:43:54.896Z,22.2
2022-08-16T21:50:09.479Z,22
2022-08-16T21:54:17.322Z,22
2022-08-16T22:00:29.086Z,21.9
2022-08-16T22:07:47.044Z,21.8
2022-08-16T22:13:59.387Z,21.7
2022-08-16T22:16:05.562Z,21.7
2022-08-16T22:18:09.458Z,21.7
2022-08-16T22:20:13.389Z,21.7
2022-08-16T22:22:17.313Z,21.7
2022-08-16T22:24:21.254Z,21.6
2022-08-16T22:26:29.051Z,21.6
2022-08-16T22:28:29.048Z,21.6
2022-08-16T22:30:35.834Z,21.6
2022-08-16T22:32:39.734Z,21.6
2022-08-16T22:34:43.672Z,21.6
2022-08-16T22:36:47.586Z,21.6
2022-08-16T22:38:57.071Z,21.5
2022-08-16T22:40:55.448Z,21.5
2022-08-16T22:42:59.373Z,21.5
2022-08-16T22:45:06.096Z,21.6
2022-08-16T22:47:10.021Z,21.6
2022-08-16T22:49:13.948Z,21.6
2022-08-16T22:51:17.890Z,21.6
2022-08-16T22:53:21.799Z,21.5
2022-08-16T22:55:26.154Z,21.5
2022-08-16T22:57:29.654Z,21.5
2022-08-16T22:59:36.413Z,21.5
2022-08-16T23:01:40.374Z,21.5
2022-08-16T23:04:47.616Z,21.5
2022-08-16T23:06:51.536Z,21.6
2022-08-16T23:10:59.386Z,21.6
2022-08-16T23:13:06.136Z,21.5
2022-08-16T23:15:10.055Z,21.5
2022-08-16T23:17:13.989Z,21.6
2022-08-16T23:19:17.936Z,21.7
2022-08-16T23:21:21.834Z,21.6
2022-08-16T23:27:36.446Z,21.6
2022-08-16T23:29:40.350Z,21.7
2022-08-16T23:33:48.214Z,21.6
2022-08-16T23:35:52.126Z,21.5
2022-08-16T23:37:56.039Z,21.5
2022-08-16T23:40:00.026Z,21.5
2022-08-16T23:42:06.751Z,21.4
2022-08-16T23:46:14.574Z,21.4
2022-08-16T23:48:18.503Z,21.4
2022-08-16T23:52:53.765Z,21.5
2022-08-16T23:54:30.291Z,21.5
2022-08-16T23:56:40.524Z,21.5
2022-08-16T23:58:40.961Z,21.4
